createdAt,value
2019-05-23T00:00:24.532Z,46.39
2019-05-23T00:02:55.537Z,46.32
2019-05-23T00:05:35.340Z,46.08
2019-05-23T00:08:06.580Z,46.64
2019-05-23T00:10:43.752Z,46.35
2019-05-23T00:13:17.789Z,46.25
2019-05-23T00:15:50.973Z,46.60
2019-05-23T00:18:21.429Z,46.41
2019-05-23T00:20:51.985Z,46.29
2019-05-23T00:23:22.436Z,46.40
2019-05-23T00:25:53.026Z,46.32
2019-05-23T00:28:22.471Z,45.99
2019-05-23T00:30:56.180Z,46.03
2019-05-23T00:33:27.250Z,46.02
2019-05-23T00:35:56.994Z,45.80
2019-05-23T00:38:26.857Z,45.89
2019-05-23T00:40:57.777Z,45.88
2019-05-23T00:43:27.809Z,45.97
2019-05-23T00:45:57.280Z,45.89
2019-05-23T00:48:27.425Z,45.92
2019-05-23T00:50:57.312Z,46.26
2019-05-23T00:53:28.377Z,46.36
2019-05-23T00:55:57.904Z,46.17
2019-05-23T00:58:27.435Z,46.33
2019-05-23T01:01:09.738Z,46.52
2019-05-23T01:03:39.671Z,46.38
2019-05-23T01:06:10.653Z,46.38
2019-05-23T01:08:40.708Z,46.38
2019-05-23T01:11:11.599Z,46.28
2019-05-23T01:13:41.835Z,46.20
2019-05-23T01:16:12.169Z,46.09
2019-05-23T01:18:41.742Z,46.32
2019-05-23T01:21:13.537Z,46.39
2019-05-23T01:23:44.548Z,45.91
2019-05-23T01:26:13.983Z,45.78
2019-05-23T01:28:43.569Z,45.69
2019-05-23T01:31:26.485Z,45.66
2019-05-23T01:33:57.553Z,45.60
2019-05-23T01:36:26.996Z,45.54
2019-05-23T01:38:57.027Z,45.67
2019-05-23T01:41:26.799Z,45.66
2019-05-23T01:43:56.658Z,45.51
2019-05-23T01:46:31.750Z,45.58
2019-05-23T01:49:02.164Z,46.13
2019-05-23T01:51:32.699Z,46.09
2019-05-23T01:54:03.261Z,46.43
2019-05-23T01:56:33.030Z,47.20
2019-05-23T01:59:02.564Z,46.90
2019-05-23T02:01:32.003Z,46.94
2019-05-23T02:04:02.767Z,46.54
2019-05-23T02:06:32.611Z,46.33
2019-05-23T02:09:02.161Z,46.24
2019-05-23T02:11:31.945Z,46.21
2019-05-23T02:14:01.577Z,46.11
2019-05-23T02:16:31.827Z,46.15
2019-05-23T02:19:01.937Z,46.15
2019-05-23T02:21:31.871Z,46.01
2019-05-23T02:24:02.510Z,45.86
2019-05-23T02:26:32.799Z,45.84
2019-05-23T02:29:03.225Z,45.67
2019-05-23T02:31:32.967Z,45.73
2019-05-23T02:34:02.837Z,45.90
2019-05-23T02:36:32.607Z,45.94
2019-05-23T02:39:21.816Z,45.97
2019-05-23T02:42:09.622Z,45.91
2019-05-23T02:44:40.634Z,45.95
2019-05-23T02:47:11.683Z,45.94
2019-05-23T02:49:41.188Z,45.89
2019-05-23T02:52:23.396Z,45.81
2019-05-23T02:54:52.948Z,45.71
2019-05-23T02:57:23.566Z,45.74
2019-05-23T02:59:56.119Z,45.73
2019-05-23T03:02:36.096Z,45.55
2019-05-23T03:05:07.039Z,45.42
2019-05-23T03:07:36.580Z,45.42
2019-05-23T03:10:09.202Z,45.50
2019-05-23T03:12:38.969Z,45.65
2019-05-23T03:15:09.007Z,45.99
2019-05-23T03:17:41.543Z,46.43
2019-05-23T03:20:12.838Z,46.66
2019-05-23T03:23:02.110Z,46.87
2019-05-23T03:25:39.471Z,47.35
2019-05-23T03:28:09.922Z,47.38
2019-05-23T03:30:43.975Z,47.38
2019-05-23T03:33:15.232Z,47.24
2019-05-23T03:35:49.243Z,47.13
2019-05-23T03:38:19.218Z,46.98
2019-05-23T03:40:48.652Z,46.71
2019-05-23T03:43:18.245Z,46.44
2019-05-23T03:46:07.572Z,46.25
2019-05-23T03:48:38.736Z,45.90
2019-05-23T03:51:10.250Z,45.87
2019-05-23T03:53:39.906Z,45.64
2019-05-23T03:56:10.138Z,45.32
2019-05-23T03:58:41.216Z,45.38
2019-05-23T04:01:12.330Z,45.70
2019-05-23T04:03:42.983Z,45.86
2019-05-23T04:06:13.016Z,45.92
2019-05-23T04:08:43.423Z,45.67
2019-05-23T04:11:14.084Z,45.45
2019-05-23T04:13:43.538Z,45.20
2019-05-23T04:16:13.008Z,45.26
2019-05-23T04:18:42.437Z,45.00
2019-05-23T04:21:11.933Z,45.04
2019-05-23T04:23:41.370Z,44.91
2019-05-23T04:26:11.107Z,45.26
2019-05-23T04:28:40.621Z,45.47
2019-05-23T04:31:12.936Z,45.58
2019-05-23T04:33:41.314Z,45.22
2019-05-23T04:36:11.048Z,45.51
2019-05-23T04:38:40.497Z,45.15
2019-05-23T04:41:10.018Z,45.50
2019-05-23T04:43:39.516Z,44.82
2019-05-23T04:46:08.990Z,45.15
2019-05-23T04:48:38.774Z,45.25
2019-05-23T04:51:08.505Z,45.71
2019-05-23T04:53:38.127Z,44.98
2019-05-23T04:56:07.563Z,45.87
2019-05-23T04:58:37.713Z,45.90
2019-05-23T05:01:07.674Z,46.84
2019-05-23T05:03:37.519Z,46.01
2019-05-23T05:06:07.238Z,45.97
2019-05-23T05:08:36.739Z,47.00
2019-05-23T05:11:06.986Z,48.87
2019-05-23T05:13:36.560Z,49.61
2019-05-23T05:16:06.700Z,50.73
2019-05-23T05:18:36.597Z,51.13
2019-05-23T05:21:06.077Z,49.42
2019-05-23T05:23:35.521Z,50.19
2019-05-23T05:26:05.554Z,49.90
2019-05-23T05:28:35.076Z,49.11
2019-05-23T05:31:04.523Z,47.36
2019-05-23T05:33:33.941Z,45.71
2019-05-23T05:36:03.676Z,46.63
2019-05-23T05:38:33.727Z,47.32
2019-05-23T05:41:03.147Z,46.60
2019-05-23T05:43:32.610Z,46.28
2019-05-23T05:46:02.312Z,45.32
2019-05-23T05:48:32.257Z,44.59
2019-05-23T05:51:01.737Z,43.79
2019-05-23T05:53:31.559Z,43.16
2019-05-23T05:56:00.988Z,42.05
2019-05-23T05:58:30.439Z,41.72
2019-05-23T06:01:04.629Z,42.17
2019-05-23T06:03:34.350Z,42.77
2019-05-23T06:06:08.347Z,41.72
2019-05-23T06:08:39.355Z,41.24
2019-05-23T06:11:10.557Z,41.70
2019-05-23T06:13:40.052Z,41.19
2019-05-23T06:16:09.648Z,42.08
2019-05-23T06:18:39.166Z,44.36
2019-05-23T06:21:10.218Z,42.86
2019-05-23T06:23:39.745Z,44.82
2019-05-23T06:26:09.182Z,44.43
2019-05-23T06:28:39.553Z,44.40
2019-05-23T06:31:09.172Z,45.17
2019-05-23T06:33:38.642Z,44.40
2019-05-23T06:36:08.179Z,42.41
2019-05-23T06:38:38.055Z,41.68
2019-05-23T06:41:08.264Z,41.65
2019-05-23T06:43:37.888Z,43.14
2019-05-23T06:46:07.324Z,40.70
2019-05-23T06:48:37.191Z,39.05
2019-05-23T06:51:06.624Z,39.18
2019-05-23T06:53:36.093Z,38.12
2019-05-23T06:56:06.496Z,37.31
2019-05-23T06:58:35.926Z,35.71
2019-05-23T07:01:05.378Z,35.75
2019-05-23T07:03:42.351Z,35.33
2019-05-23T07:06:06.225Z,34.89
2019-05-23T07:08:35.657Z,32.82
2019-05-23T07:11:05.211Z,31.52
2019-05-23T07:13:36.278Z,30.35
2019-05-23T07:16:05.739Z,29.51
2019-05-23T07:18:35.232Z,29.16
2019-05-23T07:21:04.802Z,28.77
2019-05-23T07:23:34.286Z,28.56
2019-05-23T07:26:03.852Z,28.92
2019-05-23T07:28:33.382Z,29.86
2019-05-23T07:31:02.817Z,30.22
2019-05-23T07:33:32.347Z,29.78
2019-05-23T07:36:01.789Z,30.57
2019-05-23T07:38:31.224Z,30.20
2019-05-23T07:41:00.934Z,30.68
2019-05-23T07:43:30.379Z,29.69
2019-05-23T07:46:01.390Z,29.71
2019-05-23T07:48:31.602Z,29.42
2019-05-23T07:51:01.027Z,28.26
2019-05-23T07:53:34.761Z,28.31
2019-05-23T07:56:05.063Z,28.03
2019-05-23T07:58:34.589Z,27.85
2019-05-23T08:01:05.600Z,25.90
2019-05-23T08:03:35.288Z,25.57
2019-05-23T08:06:04.976Z,25.02
2019-05-23T08:08:34.659Z,24.25
2019-05-23T08:11:04.201Z,24.51
2019-05-23T08:13:33.978Z,25.69
2019-05-23T08:16:04.408Z,25.69
2019-05-23T08:18:33.988Z,27.77
2019-05-23T08:21:03.518Z,27.42
2019-05-23T08:23:33.056Z,26.99
2019-05-23T08:26:02.576Z,26.66
2019-05-23T08:28:32.720Z,25.90
2019-05-23T08:31:02.553Z,26.81
2019-05-23T08:33:32.462Z,26.58
2019-05-23T08:36:02.392Z,24.33
2019-05-23T08:38:32.131Z,24.44
2019-05-23T08:41:01.630Z,24.73
2019-05-23T08:43:31.136Z,24.37
2019-05-23T08:46:00.764Z,24.24
2019-05-23T08:48:30.310Z,23.79
2019-05-23T08:50:59.767Z,24.13
2019-05-23T08:53:29.644Z,25.30
2019-05-23T08:55:59.180Z,24.98
2019-05-23T08:58:29.187Z,26.36
2019-05-23T09:00:58.662Z,25.43
2019-05-23T09:03:28.896Z,26.20
2019-05-23T09:05:59.950Z,25.67
2019-05-23T09:08:29.789Z,26.67
2019-05-23T09:10:59.871Z,26.87
2019-05-23T09:13:29.643Z,27.16
2019-05-23T09:15:59.180Z,28.01
2019-05-23T09:18:28.786Z,27.78
2019-05-23T09:20:58.209Z,29.03
2019-05-23T09:23:27.812Z,29.31
2019-05-23T09:25:57.287Z,27.17
2019-05-23T09:28:26.791Z,25.62
2019-05-23T09:30:56.519Z,25.29
2019-05-23T09:33:26.004Z,26.25
2019-05-23T09:35:55.460Z,27.41
2019-05-23T09:38:25.325Z,27.10
2019-05-23T09:40:54.877Z,27.19
2019-05-23T09:43:24.339Z,26.11
2019-05-23T09:45:53.926Z,25.52
2019-05-23T09:48:23.371Z,26.47
2019-05-23T09:50:52.817Z,26.75
2019-05-23T09:53:22.634Z,26.88
2019-05-23T09:55:53.969Z,27.58
2019-05-23T09:58:23.248Z,29.28
2019-05-23T10:00:52.884Z,30.26
2019-05-23T10:03:22.341Z,29.87
2019-05-23T10:05:52.383Z,29.86
2019-05-23T10:08:21.893Z,28.47
2019-05-23T10:10:51.534Z,29.27
2019-05-23T10:13:37.922Z,28.88
2019-05-23T10:16:00.235Z,29.08
2019-05-23T10:18:29.773Z,30.38
2019-05-23T10:20:59.211Z,30.72
2019-05-23T10:23:28.735Z,31.02
2019-05-23T10:25:58.186Z,30.67
2019-05-23T10:28:27.621Z,29.80
2019-05-23T10:30:57.114Z,30.18
2019-05-23T10:33:26.565Z,29.73
2019-05-23T10:36:00.567Z,29.86
2019-05-23T10:38:29.483Z,29.70
2019-05-23T10:40:58.403Z,29.54
2019-05-23T10:43:27.861Z,31.67
2019-05-23T10:45:57.436Z,31.37
2019-05-23T10:48:28.453Z,31.08
2019-05-23T10:50:58.050Z,31.46
2019-05-23T10:53:27.535Z,29.65
2019-05-23T10:55:56.977Z,31.24
2019-05-23T10:58:26.658Z,30.18
2019-05-23T11:00:56.140Z,28.91
2019-05-23T11:03:25.737Z,30.95
2019-05-23T11:05:55.219Z,31.08
2019-05-23T11:08:28.809Z,30.58
2019-05-23T11:10:57.035Z,31.77
2019-05-23T11:13:26.595Z,31.99
2019-05-23T11:15:56.217Z,32.32
2019-05-23T11:18:25.789Z,30.37
2019-05-23T11:20:55.313Z,29.15
2019-05-23T11:23:26.629Z,29.42
2019-05-23T11:25:56.069Z,28.53
2019-05-23T11:28:25.890Z,28.64
2019-05-23T11:30:56.919Z,28.72
2019-05-23T11:33:26.514Z,28.90
2019-05-23T11:35:55.994Z,29.70
2019-05-23T11:38:25.921Z,28.63
2019-05-23T11:40:55.477Z,29.75
2019-05-23T11:43:24.923Z,28.11
2019-05-23T11:45:56.145Z,28.39
2019-05-23T11:48:25.681Z,27.46
2019-05-23T11:50:56.415Z,28.73
2019-05-23T11:53:26.869Z,30.29
2019-05-23T11:55:56.354Z,29.90
2019-05-23T11:58:25.835Z,33.40
2019-05-23T12:01:03.049Z,33.89
2019-05-23T12:03:32.543Z,34.46
2019-05-23T12:06:05.603Z,34.76
2019-05-23T12:08:33.268Z,32.81
2019-05-23T12:11:02.799Z,33.55
2019-05-23T12:13:32.385Z,33.53
2019-05-23T12:16:02.043Z,32.38
2019-05-23T12:18:31.548Z,31.86
2019-05-23T12:21:01.052Z,32.13
2019-05-23T12:23:30.497Z,32.26
2019-05-23T12:25:59.949Z,33.67
2019-05-23T12:28:29.603Z,33.37
2019-05-23T12:30:59.184Z,32.29
2019-05-23T12:33:28.637Z,31.75
2019-05-23T12:35:58.343Z,30.19
2019-05-23T12:38:27.792Z,30.68
2019-05-23T12:40:57.938Z,30.10
2019-05-23T12:43:27.539Z,30.40
2019-05-23T12:45:56.983Z,30.08
2019-05-23T12:48:32.153Z,30.82
2019-05-23T12:51:12.386Z,31.44
2019-05-23T12:53:41.835Z,33.49
2019-05-23T12:56:11.388Z,35.46
2019-05-23T12:58:41.712Z,37.42
2019-05-23T13:01:15.609Z,39.16
2019-05-23T13:03:46.700Z,40.10
2019-05-23T13:06:17.479Z,40.58
2019-05-23T13:08:48.505Z,40.31
2019-05-23T13:11:18.012Z,40.99
2019-05-23T13:13:49.254Z,40.91
2019-05-23T13:16:20.221Z,41.51
2019-05-23T13:18:49.679Z,41.62
2019-05-23T13:21:20.123Z,40.90
2019-05-23T13:23:49.743Z,40.33
2019-05-23T13:26:19.197Z,41.00
2019-05-23T13:28:48.640Z,40.99
2019-05-23T13:31:18.122Z,41.26
2019-05-23T13:33:49.084Z,41.30
2019-05-23T13:36:19.865Z,41.87
2019-05-23T13:38:50.344Z,41.93
2019-05-23T13:41:20.892Z,42.24
2019-05-23T13:43:51.747Z,42.46
2019-05-23T13:46:21.248Z,42.73
2019-05-23T13:48:50.694Z,42.29
2019-05-23T13:51:20.202Z,41.96
2019-05-23T13:53:50.865Z,41.92
2019-05-23T13:56:20.374Z,42.17
2019-05-23T13:58:50.121Z,42.24
2019-05-23T14:01:19.850Z,42.37
2019-05-23T14:03:51.914Z,42.58
2019-05-23T14:06:22.594Z,41.75
2019-05-23T14:48:27.636Z,46.51
2019-05-23T14:51:10.883Z,45.40
2019-05-23T14:53:54.251Z,45.08
2019-05-23T14:56:26.324Z,44.73
2019-05-23T14:58:55.278Z,45.61
2019-05-23T15:01:27.210Z,45.06
2019-05-23T15:03:57.710Z,45.81
2019-05-23T15:06:27.595Z,46.07
2019-05-23T15:08:57.094Z,46.50
2019-05-23T15:11:26.489Z,45.33
2019-05-23T15:13:57.276Z,45.03
2019-05-23T15:16:27.750Z,44.65
2019-05-23T15:18:58.982Z,44.77
2019-05-23T15:21:28.433Z,47.18
2019-05-23T15:23:57.878Z,48.29
2019-05-23T15:26:28.493Z,49.16
2019-05-23T15:28:58.990Z,49.98
2019-05-23T15:31:28.597Z,50.52
2019-05-23T15:33:58.025Z,51.63
2019-05-23T15:36:27.564Z,51.31
2019-05-23T15:39:08.742Z,51.43
2019-05-23T15:41:29.536Z,50.84
2019-05-23T15:43:58.959Z,50.19
2019-05-23T15:46:28.394Z,49.13
2019-05-23T15:48:57.978Z,49.53
2019-05-23T15:51:40.545Z,49.38
2019-05-23T15:54:17.842Z,48.51
2019-05-23T15:56:51.649Z,48.17
2019-05-23T15:59:38.001Z,48.23
2019-05-23T16:02:11.783Z,48.24
2019-05-23T16:04:41.694Z,49.12
2019-05-23T16:07:12.087Z,50.27
2019-05-23T16:09:41.508Z,50.95
2019-05-23T16:12:14.348Z,51.55
2019-05-23T16:14:45.181Z,51.82
2019-05-23T16:17:14.830Z,52.05
2019-05-23T16:19:46.275Z,52.68
2019-05-23T16:22:19.218Z,53.36
2019-05-23T16:24:48.674Z,53.98
2019-05-23T16:27:18.090Z,55.19
2019-05-23T16:29:47.639Z,56.80
2019-05-23T16:32:17.099Z,57.54
2019-05-23T16:34:46.938Z,57.15
2019-05-23T16:37:16.416Z,57.87
2019-05-23T16:39:48.754Z,57.49
2019-05-23T16:42:18.500Z,56.38
2019-05-23T16:44:48.000Z,56.07
2019-05-23T16:47:18.999Z,56.83
2019-05-23T16:49:48.425Z,56.88
2019-05-23T16:52:17.911Z,57.28
2019-05-23T16:54:48.956Z,57.05
2019-05-23T16:57:25.484Z,55.82
2019-05-23T16:59:59.561Z,55.99
2019-05-23T17:02:36.620Z,55.51
2019-05-23T17:05:16.400Z,56.58
2019-05-23T17:07:47.984Z,56.83
2019-05-23T17:10:30.228Z,56.25
2019-05-23T17:13:07.095Z,55.65
2019-05-23T17:15:38.129Z,56.15
2019-05-23T17:18:09.161Z,56.15
2019-05-23T17:20:43.182Z,56.51
2019-05-23T17:23:14.178Z,56.34
2019-05-23T17:25:51.274Z,56.66
2019-05-23T17:28:25.106Z,56.77
2019-05-23T17:30:56.155Z,56.53
2019-05-23T17:33:25.845Z,55.80
2019-05-23T17:35:56.546Z,57.00
2019-05-23T17:38:25.970Z,57.36
2019-05-23T17:40:55.899Z,57.34
2019-05-23T17:43:25.390Z,56.60
2019-05-23T17:45:54.815Z,56.02
2019-05-23T17:48:24.249Z,56.12
2019-05-23T17:50:53.788Z,56.41
2019-05-23T17:53:23.357Z,56.78
2019-05-23T17:55:53.512Z,56.32
2019-05-23T17:58:23.662Z,55.95
2019-05-23T18:00:53.407Z,56.65
2019-05-23T18:03:23.428Z,56.56
2019-05-23T18:05:53.512Z,57.56
2019-05-23T18:08:23.538Z,57.52
2019-05-23T18:10:52.993Z,57.56
2019-05-23T18:13:22.524Z,57.18
2019-05-23T18:15:51.995Z,57.75
2019-05-23T18:18:21.519Z,58.46
2019-05-23T18:20:51.988Z,58.02
2019-05-23T18:23:22.202Z,58.63
2019-05-23T18:25:51.632Z,59.45
2019-05-23T18:28:21.061Z,59.42
2019-05-23T18:30:52.421Z,60.04
2019-05-23T18:33:23.427Z,58.55
2019-05-23T18:35:52.860Z,59.51
2019-05-23T18:38:22.871Z,59.48
2019-05-23T18:41:02.248Z,59.81
2019-05-23T18:43:24.840Z,58.51
2019-05-23T18:45:55.887Z,57.78
2019-05-23T18:48:25.348Z,56.85
2019-05-23T18:50:55.375Z,57.34
2019-05-23T18:53:24.943Z,56.59
2019-05-23T18:55:54.371Z,56.04
2019-05-23T18:58:23.861Z,54.75
2019-05-23T19:01:01.960Z,54.34
2019-05-23T19:03:31.954Z,54.00
2019-05-23T19:06:01.383Z,52.86
2019-05-23T19:08:31.223Z,52.62
2019-05-23T19:11:00.900Z,52.60
2019-05-23T19:13:30.340Z,52.80
2019-05-23T19:15:59.752Z,53.10
2019-05-23T19:18:30.125Z,54.10
2019-05-23T19:20:59.587Z,54.60
2019-05-23T19:23:29.272Z,54.55
2019-05-23T19:25:58.805Z,53.96
2019-05-23T19:28:28.235Z,52.87
2019-05-23T19:30:58.509Z,52.27
2019-05-23T19:33:28.342Z,52.06
2019-05-23T19:35:58.180Z,51.47
2019-05-23T19:38:27.719Z,51.40
2019-05-23T19:40:57.148Z,51.64
2019-05-23T19:43:28.614Z,51.68
2019-05-23T19:45:58.143Z,51.45
2019-05-23T19:48:27.690Z,50.77
2019-05-23T19:50:57.264Z,50.31
2019-05-23T19:53:27.104Z,50.73
2019-05-23T19:55:56.655Z,50.96
2019-05-23T19:58:26.346Z,51.33
2019-05-23T20:00:56.961Z,51.57
2019-05-23T20:03:26.387Z,52.18
2019-05-23T20:05:57.456Z,51.90
2019-05-23T20:08:26.941Z,52.39
2019-05-23T20:10:56.420Z,52.60
2019-05-23T20:13:26.303Z,52.75
2019-05-23T20:15:55.773Z,53.49
2019-05-23T20:18:25.192Z,53.47
2019-05-23T20:20:54.772Z,54.87
2019-05-23T20:23:24.207Z,54.17
2019-05-23T20:25:53.645Z,53.89
2019-05-23T20:28:23.505Z,53.38
2019-05-23T20:30:53.132Z,53.25
2019-05-23T20:33:22.618Z,52.65
2019-05-23T20:35:52.052Z,53.18
2019-05-23T20:38:21.677Z,53.15
2019-05-23T20:40:51.145Z,53.34
2019-05-23T20:43:20.617Z,53.12
2019-05-23T20:45:50.035Z,53.01
2019-05-23T20:48:19.560Z,52.98
2019-05-23T20:50:48.989Z,53.39
2019-05-23T20:53:18.406Z,54.00
2019-05-23T20:55:47.918Z,53.32
2019-05-23T20:58:17.370Z,53.49
2019-05-23T21:00:48.356Z,53.44
2019-05-23T21:03:37.179Z,53.23
2019-05-23T21:06:07.473Z,52.85
2019-05-23T21:08:37.152Z,52.33
2019-05-23T21:11:06.586Z,51.58
2019-05-23T21:13:36.273Z,50.91
2019-05-23T21:16:06.111Z,50.78
2019-05-23T21:18:35.554Z,50.54
2019-05-23T21:21:05.829Z,50.62
2019-05-23T21:23:35.719Z,51.23
2019-05-23T21:26:06.578Z,51.68
2019-05-23T21:28:35.984Z,51.75
2019-05-23T21:31:06.990Z,52.16
2019-05-23T21:33:36.479Z,52.27
2019-05-23T21:36:05.945Z,51.54
2019-05-23T21:38:35.378Z,51.70
2019-05-23T21:41:04.840Z,51.77
2019-05-23T21:43:34.268Z,50.93
2019-05-23T21:46:03.745Z,51.80
2019-05-23T21:48:33.211Z,51.35
2019-05-23T21:51:02.632Z,51.11
2019-05-23T21:53:32.080Z,50.94
2019-05-23T21:56:01.512Z,51.51
2019-05-23T21:58:31.000Z,50.77
2019-05-23T22:01:08.623Z,51.76
2019-05-23T22:03:48.965Z,51.52
2019-05-23T22:06:19.987Z,51.81
2019-05-23T22:08:49.434Z,51.43
2019-05-23T22:11:19.062Z,51.25
2019-05-23T22:13:48.504Z,50.65
2019-05-23T22:16:18.205Z,50.71
2019-05-23T22:18:47.630Z,50.47
2019-05-23T22:21:17.264Z,50.47
2019-05-23T22:23:46.922Z,50.92
2019-05-23T22:26:16.368Z,50.84
2019-05-23T22:28:45.807Z,50.76
2019-05-23T22:31:15.697Z,51.01
2019-05-23T22:33:55.967Z,50.69
2019-05-23T22:36:25.769Z,50.41
2019-05-23T22:40:01.989Z,50.31
2019-05-23T22:42:31.627Z,51.28
2019-05-23T22:45:02.477Z,51.48
2019-05-23T22:47:31.927Z,51.19
2019-05-23T22:50:01.374Z,51.08
2019-05-23T22:52:30.841Z,51.10
2019-05-23T22:55:00.270Z,50.45
2019-05-23T22:57:29.763Z,50.23
2019-05-23T22:59:59.194Z,51.08
2019-05-23T23:02:28.623Z,51.67
2019-05-23T23:04:58.129Z,50.58
2019-05-23T23:07:27.559Z,51.63
2019-05-23T23:09:57.091Z,51.78
2019-05-23T23:12:26.692Z,51.46
2019-05-23T23:14:56.134Z,51.03
2019-05-23T23:17:25.567Z,51.04
2019-05-23T23:19:55.033Z,51.00
2019-05-23T23:22:24.608Z,51.56
2019-05-23T23:24:54.044Z,52.26
2019-05-23T23:27:23.476Z,53.53
2019-05-23T23:29:52.948Z,53.37
2019-05-23T23:32:22.423Z,54.45
2019-05-23T23:34:51.971Z,53.95
2019-05-23T23:37:21.429Z,53.03
2019-05-23T23:39:51.093Z,53.96
2019-05-23T23:42:20.532Z,53.65
2019-05-23T23:44:49.144Z,52.86
2019-05-23T23:47:36.653Z,51.54
2019-05-23T23:50:24.568Z,50.92
2019-05-23T23:53:11.702Z,51.58
2019-05-23T23:55:59.080Z,51.25
2019-05-23T23:58:27.750Z,52.97
